createdAt,value
2019-05-18T00:01:38.735Z,99944.00
2019-05-18T00:04:07.394Z,99942.00
2019-05-18T00:06:36.066Z,99940.00
2019-05-18T00:09:05.852Z,99939.00
2019-05-18T00:11:34.732Z,99933.00
2019-05-18T00:14:07.537Z,99935.00
2019-05-18T00:16:38.082Z,99940.00
2019-05-18T00:19:06.891Z,99945.00
2019-05-18T00:21:35.262Z,99941.00
2019-05-18T00:24:04.902Z,99941.00
2019-05-18T00:26:33.286Z,99938.00
2019-05-18T00:29:01.962Z,99931.00
2019-05-18T00:31:30.637Z,99924.00
2019-05-18T00:33:59.368Z,99917.00
2019-05-18T00:36:28.660Z,99926.00
2019-05-18T00:38:57.611Z,99932.00
2019-05-18T00:41:26.333Z,99927.00
2019-05-18T00:43:54.724Z,99927.00
2019-05-18T00:46:23.118Z,99921.00
2019-05-18T00:48:52.135Z,99911.00
2019-05-18T00:51:23.315Z,99901.00
2019-05-18T00:53:51.118Z,99905.00
2019-05-18T00:56:21.560Z,99898.00
2019-05-18T00:58:50.185Z,99897.00
2019-05-18T01:01:18.942Z,99904.00
2019-05-18T01:03:47.260Z,99900.00
2019-05-18T01:06:15.973Z,99898.00
2019-05-18T01:08:45.005Z,99896.00
2019-05-18T01:11:13.676Z,99894.00
2019-05-18T01:13:42.301Z,99897.00
2019-05-18T01:16:11.950Z,99900.00
2019-05-18T01:18:42.463Z,99899.00
2019-05-18T01:21:11.139Z,99898.00
2019-05-18T01:23:39.928Z,99901.00
2019-05-18T01:26:08.197Z,99889.00
2019-05-18T01:28:36.588Z,99887.00
2019-05-18T01:31:05.237Z,99887.00
2019-05-18T01:33:33.989Z,99883.00
2019-05-18T01:36:02.347Z,99875.00
2019-05-18T01:38:31.102Z,99862.00
2019-05-18T01:40:59.706Z,99863.00
2019-05-18T01:43:27.966Z,99861.00
2019-05-18T01:45:56.861Z,99856.00
2019-05-18T01:48:25.168Z,99850.00
2019-05-18T01:50:53.543Z,99850.00
2019-05-18T01:53:21.922Z,99840.00
2019-05-18T01:55:50.662Z,99844.00
2019-05-18T01:58:20.598Z,99833.00
2019-05-18T02:00:48.918Z,99842.00
2019-05-18T02:03:17.966Z,99844.00
2019-05-18T02:05:46.625Z,99828.00
2019-05-18T02:08:14.986Z,99822.00
2019-05-18T02:10:43.663Z,99812.00
2019-05-18T02:13:12.385Z,99817.00
2019-05-18T02:15:41.027Z,99830.00
2019-05-18T02:18:10.374Z,99826.00
2019-05-18T02:20:40.818Z,99827.00
2019-05-18T02:23:09.265Z,99829.00
2019-05-18T02:25:37.994Z,99828.00
2019-05-18T02:28:07.048Z,99819.00
2019-05-18T02:30:35.655Z,99823.00
2019-05-18T02:33:04.086Z,99829.00
2019-05-18T02:35:32.697Z,99835.00
2019-05-18T02:38:14.495Z,99826.00
2019-05-18T02:40:43.533Z,99834.00
2019-05-18T02:43:12.944Z,99838.00
2019-05-18T02:45:41.250Z,99842.00
2019-05-18T02:48:09.862Z,99833.00
2019-05-18T02:50:38.612Z,99844.00
2019-05-18T02:53:07.326Z,99834.00
2019-05-18T02:55:36.064Z,99849.00
2019-05-18T02:58:05.041Z,99855.00
2019-05-18T03:00:33.701Z,99844.00
2019-05-18T03:03:04.135Z,99841.00
2019-05-18T03:05:32.962Z,99835.00
2019-05-18T03:08:01.802Z,99845.00
2019-05-18T03:10:30.640Z,99849.00
2019-05-18T03:12:59.249Z,99856.00
2019-05-18T03:15:27.702Z,99855.00
2019-05-18T03:17:56.066Z,99847.00
2019-05-18T03:20:25.941Z,99850.00
2019-05-18T03:22:56.902Z,99856.00
2019-05-18T03:25:25.192Z,99851.00
2019-05-18T03:27:53.615Z,99852.00
2019-05-18T03:30:22.251Z,99847.00
2019-05-18T03:32:51.361Z,99843.00
2019-05-18T03:35:19.889Z,99850.00
2019-05-18T03:37:48.710Z,99849.00
2019-05-18T03:40:17.510Z,99844.00
2019-05-18T03:42:45.987Z,99835.00
2019-05-18T03:45:15.009Z,99833.00
2019-05-18T03:47:43.725Z,99839.00
2019-05-18T03:50:12.297Z,99834.00
2019-05-18T03:52:40.776Z,99840.00
2019-05-18T03:55:09.100Z,99843.00
2019-05-18T03:57:37.840Z,99836.00
2019-05-18T04:00:07.036Z,99838.00
2019-05-18T04:02:35.466Z,99835.00
2019-05-18T04:05:04.198Z,99843.00
2019-05-18T04:07:33.182Z,99846.00
2019-05-18T04:10:02.173Z,99838.00
2019-05-18T04:12:30.840Z,99841.00
2019-05-18T04:14:59.591Z,99839.00
2019-05-18T04:17:27.941Z,99847.00
2019-05-18T04:19:56.608Z,99852.00
2019-05-18T04:22:26.538Z,99845.00
2019-05-18T04:24:56.612Z,99851.00
2019-05-18T04:27:25.290Z,99874.00
2019-05-18T04:29:53.815Z,99884.00
2019-05-18T04:32:22.530Z,99889.00
2019-05-18T04:34:51.216Z,99873.00
2019-05-18T04:37:19.841Z,99876.00
2019-05-18T04:39:48.551Z,99880.00
2019-05-18T04:42:16.936Z,99877.00
2019-05-18T04:44:45.933Z,99875.00
2019-05-18T04:47:14.301Z,99881.00
2019-05-18T04:49:43.002Z,99863.00
2019-05-18T04:52:11.639Z,99838.00
2019-05-18T04:54:40.407Z,99831.00
2019-05-18T04:57:09.070Z,99835.00
2019-05-18T04:59:37.768Z,99845.00
2019-05-18T05:02:06.389Z,99851.00
2019-05-18T05:04:35.100Z,99861.00
2019-05-18T05:07:03.501Z,99873.00
2019-05-18T05:09:32.471Z,99868.00
2019-05-18T05:12:01.663Z,99864.00
2019-05-18T05:14:30.496Z,99874.00
2019-05-18T05:16:59.150Z,99874.00
2019-05-18T05:19:28.099Z,99864.00
2019-05-18T05:21:56.547Z,99849.00
2019-05-18T05:24:25.519Z,99849.00
2019-05-18T05:26:56.081Z,99852.00
2019-05-18T05:29:24.424Z,99858.00
2019-05-18T05:31:53.109Z,99846.00
2019-05-18T05:34:21.806Z,99836.00
2019-05-18T05:36:50.923Z,99839.00
2019-05-18T05:39:19.496Z,99852.00
2019-05-18T05:41:48.109Z,99863.00
2019-05-18T05:44:16.609Z,99847.00
2019-05-18T05:46:45.569Z,99853.00
2019-05-18T05:49:14.424Z,99856.00
2019-05-18T05:51:42.937Z,99872.00
2019-05-18T05:54:12.833Z,99862.00
2019-05-18T05:56:42.025Z,99844.00
2019-05-18T05:59:10.864Z,99841.00
2019-05-18T06:01:39.239Z,99842.00
2019-05-18T06:04:07.942Z,99835.00
2019-05-18T06:06:36.581Z,99839.00
2019-05-18T06:09:07.406Z,99829.00
2019-05-18T06:11:36.424Z,99818.00
2019-05-18T06:14:04.768Z,99818.00
2019-05-18T06:16:33.214Z,99810.00
2019-05-18T06:19:02.791Z,99819.00
2019-05-18T06:21:31.491Z,99817.00
2019-05-18T06:23:59.835Z,99817.00
2019-05-18T06:26:28.832Z,99797.00
2019-05-18T06:29:00.110Z,99800.00
2019-05-18T06:31:28.963Z,99791.00
2019-05-18T06:33:57.505Z,99806.00
2019-05-18T06:36:26.027Z,99803.00
2019-05-18T06:38:54.714Z,99788.00
2019-05-18T06:41:23.158Z,99775.00
2019-05-18T06:43:51.784Z,99774.00
2019-05-18T06:46:20.216Z,99780.00
2019-05-18T06:48:48.872Z,99788.00
2019-05-18T06:51:17.692Z,99766.00
2019-05-18T06:53:47.993Z,99764.00
2019-05-18T06:56:17.453Z,99761.00
2019-05-18T06:58:46.939Z,99769.00
2019-05-18T07:01:15.781Z,99771.00
2019-05-18T07:03:45.142Z,99767.00
2019-05-18T07:06:13.710Z,99763.00
2019-05-18T07:08:42.385Z,99768.00
2019-05-18T07:11:10.679Z,99762.00
2019-05-18T07:13:39.687Z,99755.00
2019-05-18T07:16:08.455Z,99759.00
2019-05-18T07:18:37.163Z,99756.00
2019-05-18T07:21:05.804Z,99754.00
2019-05-18T07:23:34.764Z,99751.00
2019-05-18T07:26:03.180Z,99745.00
2019-05-18T07:28:32.172Z,99749.00
2019-05-18T07:31:02.661Z,99742.00
2019-05-18T07:33:31.647Z,99755.00
2019-05-18T07:36:00.378Z,99780.00
2019-05-18T07:38:30.296Z,99817.00
2019-05-18T07:40:58.961Z,99796.00
2019-05-18T07:43:28.015Z,99771.00
2019-05-18T07:45:56.355Z,99753.00
2019-05-18T07:48:24.655Z,99767.00
2019-05-18T07:50:53.117Z,99796.00
2019-05-18T07:53:21.770Z,99811.00
2019-05-18T07:55:50.299Z,99822.00
2019-05-18T07:58:19.505Z,99833.00
2019-05-18T08:00:48.207Z,99844.00
2019-05-18T08:03:16.998Z,99886.00
2019-05-18T08:05:46.178Z,99916.00
2019-05-18T08:08:14.615Z,99922.00
2019-05-18T08:10:44.479Z,99914.00
2019-05-18T08:13:12.849Z,99900.00
2019-05-18T08:15:41.841Z,99884.00
2019-05-18T08:18:10.494Z,99889.00
2019-05-18T08:20:39.144Z,99890.00
2019-05-18T08:23:07.596Z,99871.00
2019-05-18T08:25:35.952Z,99857.00
2019-05-18T08:28:06.197Z,99844.00
2019-05-18T08:30:36.089Z,99837.00
2019-05-18T08:33:05.915Z,99843.00
2019-05-18T08:35:34.691Z,99821.00
2019-05-18T08:38:04.902Z,99797.00
2019-05-18T08:40:33.329Z,99796.00
2019-05-18T08:43:02.018Z,99792.00
2019-05-18T08:45:30.383Z,99796.00
2019-05-18T08:47:59.080Z,99802.00
2019-05-18T08:50:27.736Z,99819.00
2019-05-18T08:52:56.779Z,99817.00
2019-05-18T08:55:25.161Z,99806.00
2019-05-18T08:57:57.576Z,99794.00
2019-05-18T09:00:26.262Z,99798.00
2019-05-18T09:02:56.383Z,99791.00
2019-05-18T09:05:24.867Z,99789.00
2019-05-18T09:07:53.478Z,99797.00
2019-05-18T09:10:22.199Z,99801.00
2019-05-18T09:12:51.134Z,99812.00
2019-05-18T09:15:20.201Z,99809.00
2019-05-18T09:17:49.439Z,99823.00
2019-05-18T09:20:18.736Z,99829.00
2019-05-18T09:22:47.216Z,99819.00
2019-05-18T09:25:15.959Z,99822.00
2019-05-18T09:27:44.851Z,99821.00
2019-05-18T09:30:13.568Z,99829.00
2019-05-18T09:32:42.509Z,99830.00
2019-05-18T09:35:13.647Z,99829.00
2019-05-18T09:37:42.312Z,99826.00
2019-05-18T09:40:11.599Z,99824.00
2019-05-18T09:42:40.599Z,99826.00
2019-05-18T09:45:10.130Z,99825.00
2019-05-18T09:47:38.955Z,99826.00
2019-05-18T09:50:08.353Z,99827.00
2019-05-18T09:52:44.953Z,99835.00
2019-05-18T09:55:08.440Z,99839.00
2019-05-18T09:57:37.706Z,99856.00
2019-05-18T10:00:07.247Z,99851.00
2019-05-18T10:02:36.279Z,99861.00
2019-05-18T10:05:06.133Z,99863.00
2019-05-18T10:07:34.868Z,99859.00
2019-05-18T10:10:03.948Z,99874.00
2019-05-18T10:12:32.561Z,99878.00
2019-05-18T10:15:02.225Z,99886.00
2019-05-18T10:17:30.809Z,99866.00
2019-05-18T10:19:59.882Z,99867.00
2019-05-18T10:22:28.837Z,99873.00
2019-05-18T10:24:57.545Z,99866.00
2019-05-18T10:27:26.415Z,99871.00
2019-05-18T10:29:55.176Z,99868.00
2019-05-18T10:32:23.951Z,99864.00
2019-05-18T10:34:52.590Z,99869.00
2019-05-18T10:37:22.885Z,99858.00
2019-05-18T10:39:51.499Z,99859.00
2019-05-18T10:42:19.892Z,99866.00
2019-05-18T10:44:48.581Z,99857.00
2019-05-18T10:47:17.509Z,99860.00
2019-05-18T10:49:46.200Z,99861.00
2019-05-18T10:52:14.912Z,99865.00
2019-05-18T10:54:43.568Z,99864.00
2019-05-18T10:57:12.317Z,99860.00
2019-05-18T10:59:41.234Z,99856.00
2019-05-18T11:02:09.705Z,99848.00
2019-05-18T11:04:38.095Z,99848.00
2019-05-18T11:07:06.774Z,99845.00
2019-05-18T11:09:35.082Z,99840.00
2019-05-18T11:12:04.417Z,99841.00
2019-05-18T11:14:34.040Z,99843.00
2019-05-18T11:17:03.035Z,99846.00
2019-05-18T11:19:31.993Z,99842.00
2019-05-18T11:22:01.309Z,99839.00
2019-05-18T11:24:29.950Z,99837.00
2019-05-18T11:26:58.416Z,99836.00
2019-05-18T11:29:27.077Z,99834.00
2019-05-18T11:31:55.731Z,99830.00
2019-05-18T11:34:24.471Z,99837.00
2019-05-18T11:36:53.168Z,99843.00
2019-05-18T11:39:23.205Z,99843.00
2019-05-18T11:41:51.679Z,99846.00
2019-05-18T11:44:20.129Z,99844.00
2019-05-18T11:46:48.805Z,99846.00
2019-05-18T11:49:17.478Z,99854.00
2019-05-18T11:51:46.204Z,99855.00
2019-05-18T11:54:14.782Z,99849.00
2019-05-18T11:56:43.228Z,99845.00
2019-05-18T11:59:15.484Z,99857.00
2019-05-18T12:01:42.452Z,99854.00
2019-05-18T12:04:10.811Z,99850.00
2019-05-18T12:06:39.272Z,99847.00
2019-05-18T12:09:07.905Z,99847.00
2019-05-18T12:11:36.936Z,99847.00
2019-05-18T12:14:05.573Z,99845.00
2019-05-18T12:16:34.081Z,99844.00
2019-05-18T12:19:03.855Z,99839.00
2019-05-18T12:21:32.664Z,99836.00
2019-05-18T12:24:14.137Z,99843.00
2019-05-18T12:26:31.772Z,99838.00
2019-05-18T12:29:00.463Z,99832.00
2019-05-18T12:31:29.217Z,99834.00
2019-05-18T12:33:58.153Z,99819.00
2019-05-18T12:36:26.548Z,99807.00
2019-05-18T12:38:56.733Z,99812.00
2019-05-18T12:41:29.880Z,99810.00
2019-05-18T12:43:58.656Z,99808.00
2019-05-18T12:46:27.167Z,99802.00
2019-05-18T12:48:56.121Z,99800.00
2019-05-18T12:51:24.770Z,99789.00
2019-05-18T12:53:53.270Z,99789.00
2019-05-18T12:56:21.863Z,99785.00
2019-05-18T12:58:51.514Z,99787.00
2019-05-18T13:01:20.165Z,99781.00
2019-05-18T13:03:48.819Z,99769.00
2019-05-18T13:06:17.926Z,99778.00
2019-05-18T13:08:46.528Z,99770.00
2019-05-18T13:11:15.310Z,99774.00
2019-05-18T13:13:44.223Z,99767.00
2019-05-18T13:16:12.906Z,99771.00
2019-05-18T13:18:41.583Z,99771.00
2019-05-18T13:21:11.179Z,99772.00
2019-05-18T13:23:39.589Z,99773.00
2019-05-18T13:26:08.545Z,99766.00
2019-05-18T13:28:37.598Z,99766.00
2019-05-18T13:31:06.382Z,99754.00
2019-05-18T13:33:34.872Z,99761.00
2019-05-18T13:36:05.484Z,99762.00
2019-05-18T13:38:34.464Z,99752.00
2019-05-18T13:41:04.715Z,99755.00
2019-05-18T13:43:35.322Z,99748.00
2019-05-18T13:46:03.878Z,99751.00
2019-05-18T13:48:32.524Z,99750.00
2019-05-18T13:51:01.543Z,99743.00
2019-05-18T13:53:29.900Z,99749.00
2019-05-18T13:55:58.681Z,99746.00
2019-05-18T13:58:27.700Z,99741.00
2019-05-18T14:00:56.641Z,99748.00
2019-05-18T14:03:25.384Z,99741.00
2019-05-18T14:05:54.562Z,99741.00
2019-05-18T14:08:23.777Z,99741.00
2019-05-18T14:10:52.270Z,99738.00
2019-05-18T14:13:20.722Z,99734.00
2019-05-18T14:15:49.074Z,99731.00
2019-05-18T14:18:17.762Z,99730.00
2019-05-18T14:20:46.625Z,99729.00
2019-05-18T14:23:15.738Z,99722.00
2019-05-18T14:25:46.207Z,99728.00
2019-05-18T14:28:14.947Z,99731.00
2019-05-18T14:30:43.971Z,99725.00
2019-05-18T14:33:12.666Z,99723.00
2019-05-18T14:35:41.429Z,99728.00
2019-05-18T14:38:09.982Z,99725.00
2019-05-18T14:40:38.471Z,99730.00
2019-05-18T14:43:08.364Z,99730.00
2019-05-18T14:45:38.839Z,99723.00
2019-05-18T14:48:07.466Z,99724.00
2019-05-18T14:50:36.217Z,99715.00
2019-05-18T14:53:05.213Z,99716.00
2019-05-18T14:55:34.180Z,99717.00
2019-05-18T14:58:03.048Z,99718.00
2019-05-18T15:00:31.662Z,99719.00
2019-05-18T15:03:02.393Z,99724.00
2019-05-18T15:05:31.114Z,99722.00
2019-05-18T15:07:59.812Z,99715.00
2019-05-18T15:10:28.148Z,99718.00
2019-05-18T15:12:56.918Z,99712.00
2019-05-18T15:15:25.569Z,99710.00
2019-05-18T15:17:54.236Z,99702.00
2019-05-18T15:20:22.953Z,99705.00
2019-05-18T15:22:51.700Z,99702.00
2019-05-18T15:25:20.633Z,99702.00
2019-05-18T15:27:49.395Z,99692.00
2019-05-18T15:30:18.700Z,99692.00
2019-05-18T15:32:47.063Z,99692.00
2019-05-18T15:35:16.745Z,99697.00
2019-05-18T15:37:45.909Z,99697.00
2019-05-18T15:40:15.204Z,99695.00
2019-05-18T15:42:43.841Z,99687.00
2019-05-18T15:45:15.888Z,99686.00
2019-05-18T15:47:46.443Z,99682.00
2019-05-18T15:50:16.091Z,99685.00
2019-05-18T15:52:44.457Z,99678.00
2019-05-18T15:55:13.504Z,99674.00
2019-05-18T15:57:42.327Z,99681.00
2019-05-18T16:00:14.045Z,99672.00
2019-05-18T16:02:42.891Z,99666.00
2019-05-18T16:05:13.049Z,99671.00
2019-05-18T16:07:41.086Z,99664.00
2019-05-18T16:10:11.943Z,99663.00
2019-05-18T16:12:41.020Z,99662.00
2019-05-18T16:15:11.298Z,99674.00
2019-05-18T16:17:40.570Z,99674.00
2019-05-18T16:20:10.656Z,99682.00
2019-05-18T16:22:38.711Z,99682.00
2019-05-18T16:25:08.026Z,99691.00
2019-05-18T16:27:36.598Z,99693.00
2019-05-18T16:30:05.722Z,99696.00
2019-05-18T16:32:34.531Z,99691.00
2019-05-18T16:35:03.175Z,99695.00
2019-05-18T16:37:31.647Z,99692.00
2019-05-18T16:40:01.142Z,99696.00
2019-05-18T16:42:29.998Z,99699.00
2019-05-18T16:44:59.016Z,99698.00
2019-05-18T16:47:27.619Z,99690.00
2019-05-18T16:49:58.692Z,99687.00
2019-05-18T16:52:27.383Z,99693.00
2019-05-18T16:54:56.097Z,99699.00
2019-05-18T16:57:24.762Z,99703.00
2019-05-18T16:59:53.107Z,99700.00
2019-05-18T17:02:31.285Z,99707.00
2019-05-18T17:04:52.656Z,99704.00
2019-05-18T17:07:21.319Z,99710.00
2019-05-18T17:09:50.043Z,99704.00
2019-05-18T17:12:19.051Z,99706.00
2019-05-18T17:14:47.989Z,99710.00
2019-05-18T17:17:16.414Z,99709.00
2019-05-18T17:19:45.186Z,99699.00
2019-05-18T17:22:13.754Z,99685.00
2019-05-18T17:24:42.481Z,99682.00
2019-05-18T17:27:11.122Z,99688.00
2019-05-18T17:29:40.766Z,99688.00
2019-05-18T17:32:09.392Z,99698.00
2019-05-18T17:34:38.135Z,99706.00
2019-05-18T17:37:06.587Z,99705.00
2019-05-18T17:39:35.018Z,99704.00
2019-05-18T17:42:05.135Z,99707.00
2019-05-18T17:44:34.066Z,99698.00
2019-05-18T17:47:03.096Z,99697.00
2019-05-18T17:49:31.525Z,99700.00
2019-05-18T17:52:03.154Z,99704.00
2019-05-18T17:54:32.200Z,99707.00
2019-05-18T17:57:08.636Z,99708.00
2019-05-18T17:59:31.050Z,99713.00
2019-05-18T18:01:59.516Z,99707.00
2019-05-18T18:04:27.895Z,99703.00
2019-05-18T18:06:56.872Z,99703.00
2019-05-18T18:09:25.605Z,99695.00
2019-05-18T18:11:54.380Z,99698.00
2019-05-18T18:14:22.927Z,99694.00
2019-05-18T18:16:51.948Z,99698.00
2019-05-18T18:19:20.967Z,99696.00
2019-05-18T18:21:50.001Z,99701.00
2019-05-18T18:24:18.617Z,99697.00
2019-05-18T18:26:47.560Z,99702.00
2019-05-18T18:29:16.028Z,99704.00
2019-05-18T18:31:45.006Z,99698.00
2019-05-18T18:34:13.677Z,99703.00
2019-05-18T18:36:42.364Z,99698.00
2019-05-18T18:39:11.470Z,99696.00
2019-05-18T18:41:40.053Z,99695.00
2019-05-18T18:44:08.834Z,99698.00
2019-05-18T18:46:37.458Z,99704.00
2019-05-18T18:49:06.092Z,99700.00
2019-05-18T18:51:34.823Z,99698.00
2019-05-18T18:54:05.217Z,99694.00
2019-05-18T18:56:33.567Z,99701.00
2019-05-18T18:59:02.076Z,99711.00
2019-05-18T19:01:31.059Z,99702.00
2019-05-18T19:03:59.765Z,99707.00
2019-05-18T19:06:28.251Z,99702.00
2019-05-18T19:08:56.828Z,99702.00
2019-05-18T19:11:25.450Z,99706.00
2019-05-18T19:13:53.888Z,99707.00
2019-05-18T19:16:22.578Z,99704.00
2019-05-18T19:18:51.253Z,99699.00
2019-05-18T19:21:19.993Z,99694.00
2019-05-18T19:23:48.946Z,99690.00
2019-05-18T19:26:17.634Z,99684.00
2019-05-18T19:28:46.013Z,99671.00
2019-05-18T19:31:15.004Z,99684.00
2019-05-18T19:33:43.988Z,99677.00
2019-05-18T19:36:12.533Z,99673.00
2019-05-18T19:38:42.472Z,99671.00
2019-05-18T19:41:10.907Z,99676.00
2019-05-18T19:43:39.413Z,99665.00
2019-05-18T19:46:08.076Z,99658.00
2019-05-18T19:48:37.379Z,99663.00
2019-05-18T19:51:06.320Z,99660.00
2019-05-18T19:53:35.661Z,99656.00
2019-05-18T19:56:06.758Z,99652.00
2019-05-18T19:58:35.496Z,99657.00
2019-05-18T20:01:04.166Z,99651.00
2019-05-18T20:03:32.564Z,99656.00
2019-05-18T20:06:02.500Z,99658.00
2019-05-18T20:08:31.488Z,99650.00
2019-05-18T20:11:00.192Z,99641.00
2019-05-18T20:13:29.114Z,99630.00
2019-05-18T20:15:57.821Z,99636.00
2019-05-18T20:18:26.797Z,99629.00
2019-05-18T20:20:55.529Z,99635.00
2019-05-18T20:23:24.307Z,99637.00
2019-05-18T20:25:52.897Z,99642.00
2019-05-18T20:28:24.080Z,99639.00
2019-05-18T20:30:52.707Z,99630.00
2019-05-18T20:33:21.357Z,99629.00
2019-05-18T20:35:50.110Z,99620.00
2019-05-18T20:38:18.769Z,99629.00
2019-05-18T20:40:48.379Z,99633.00
2019-05-18T20:43:16.788Z,99625.00
2019-05-18T20:45:45.111Z,99635.00
2019-05-18T20:48:16.795Z,99641.00
2019-05-18T20:50:43.893Z,99636.00
2019-05-18T20:53:12.412Z,99635.00
2019-05-18T20:55:41.377Z,99635.00
2019-05-18T20:58:11.654Z,99632.00
2019-05-18T21:00:40.326Z,99642.00
2019-05-18T21:03:09.376Z,99640.00
2019-05-18T21:05:38.282Z,99639.00
2019-05-18T21:08:06.673Z,99647.00
2019-05-18T21:10:35.061Z,99651.00
2019-05-18T21:13:04.673Z,99647.00
2019-05-18T21:15:33.694Z,99650.00
2019-05-18T21:18:02.665Z,99645.00
2019-05-18T21:20:31.324Z,99642.00
2019-05-18T21:22:59.769Z,99633.00
2019-05-18T21:25:28.423Z,99649.00
2019-05-18T21:27:57.125Z,99642.00
2019-05-18T21:30:25.471Z,99644.00
2019-05-18T21:32:54.137Z,99640.00
2019-05-18T21:35:22.579Z,99634.00
2019-05-18T21:37:51.305Z,99637.00
2019-05-18T21:40:20.328Z,99632.00
2019-05-18T21:42:49.216Z,99636.00
2019-05-18T21:45:17.998Z,99640.00
2019-05-18T21:47:46.804Z,99631.00
2019-05-18T21:50:16.004Z,99628.00
2019-05-18T21:52:44.463Z,99625.00
2019-05-18T21:55:13.282Z,99631.00
2019-05-18T21:57:42.900Z,99631.00
2019-05-18T22:00:13.974Z,99628.00
2019-05-18T22:02:42.522Z,99626.00
2019-05-18T22:05:11.366Z,99618.00
2019-05-18T22:07:39.831Z,99621.00
2019-05-18T22:10:23.446Z,99626.00
2019-05-18T22:12:39.348Z,99628.00
2019-05-18T22:15:08.801Z,99625.00
2019-05-18T22:17:56.901Z,99627.00
2019-05-18T22:20:25.427Z,99638.00
2019-05-18T22:22:54.069Z,99631.00
2019-05-18T22:25:22.816Z,99631.00
2019-05-18T22:27:51.453Z,99629.00
2019-05-18T22:30:20.169Z,99633.00
2019-05-18T22:32:49.103Z,99634.00
2019-05-18T22:35:18.101Z,99642.00
2019-05-18T22:37:46.810Z,99634.00
2019-05-18T22:40:17.037Z,99631.00
2019-05-18T22:42:45.692Z,99626.00
2019-05-18T22:45:15.387Z,99629.00
2019-05-18T22:47:44.118Z,99639.00
2019-05-18T22:50:12.915Z,99638.00
2019-05-18T22:52:41.527Z,99643.00
2019-05-18T22:55:10.482Z,99628.00
2019-05-18T22:57:39.076Z,99630.00
2019-05-18T23:00:08.074Z,99623.00
2019-05-18T23:02:38.146Z,99627.00
2019-05-18T23:05:06.955Z,99618.00
2019-05-18T23:07:35.595Z,99616.00
2019-05-18T23:10:05.132Z,99607.00
2019-05-18T23:12:33.931Z,99612.00
2019-05-18T23:15:02.783Z,99609.00
2019-05-18T23:17:31.278Z,99610.00
2019-05-18T23:19:59.997Z,99606.00
2019-05-18T23:22:29.606Z,99607.00
2019-05-18T23:24:58.013Z,99603.00
2019-05-18T23:27:26.691Z,99599.00
2019-05-18T23:29:55.691Z,99594.00
2019-05-18T23:32:24.329Z,99600.00
2019-05-18T23:34:53.037Z,99604.00
2019-05-18T23:37:21.684Z,99604.00
2019-05-18T23:39:50.343Z,99607.00
2019-05-18T23:42:20.019Z,99606.00
2019-05-18T23:44:49.056Z,99603.00
2019-05-18T23:47:17.620Z,99608.00
2019-05-18T23:49:46.390Z,99615.00
2019-05-18T23:52:15.093Z,99611.00
2019-05-18T23:54:43.752Z,99618.00
2019-05-18T23:57:12.162Z,99620.00
2019-05-18T23:59:40.788Z,99625.00
